sensor_id;sensor_type;location;lat;lon;timestamp;P1;durP1;ratioP1;P2;durP2;ratioP2
16634;SDS011;8431;52.458;9.998;2023-04-24T00:02:04;1.23;;;1.15;;
16634;SDS011;8431;52.458;9.998;2023-04-24T00:04:34;1.00;;;1.00;;
16634;SDS011;8431;52.458;9.998;2023-04-24T00:07:07;1.05;;;1.05;;
16634;SDS011;8431;52.458;9.998;2023-04-24T00:09:34;1.20;;;1.20;;
16634;SDS011;8431;52.458;9.998;2023-04-24T00:12:02;1.00;;;1.00;;
16634;SDS011;8431;52.458;9.998;2023-04-24T00:14:30;1.30;;;1.05;;
16634;SDS011;8431;52.458;9.998;2023-04-24T00:16:58;2.20;;;1.33;;
16634;SDS011;8431;52.458;9.998;2023-04-24T00:19:25;1.10;;;1.00;;
16634;SDS011;8431;52.458;9.998;2023-04-24T00:21:53;1.58;;;1.40;;
16634;SDS011;8431;52.458;9.998;2023-04-24T00:24:22;2.40;;;1.20;;
16634;SDS011;8431;52.458;9.998;2023-04-24T00:26:50;1.00;;;1.00;;
16634;SDS011;8431;52.458;9.998;2023-04-24T00:29:18;1.63;;;1.08;;
16634;SDS011;8431;52.458;9.998;2023-04-24T00:31:45;1.40;;;1.15;;
16634;SDS011;8431;52.458;9.998;2023-04-24T00:34:13;1.20;;;1.20;;
16634;SDS011;8431;52.458;9.998;2023-04-24T00:36:40;1.15;;;1.15;;
16634;SDS011;8431;52.458;9.998;2023-04-24T00:39:08;1.50;;;1.40;;
16634;SDS011;8431;52.458;9.998;2023-04-24T00:41:43;1.48;;;1.02;;
16634;SDS011;8431;52.458;9.998;2023-04-24T00:44:12;1.20;;;1.10;;
16634;SDS011;8431;52.458;9.998;2023-04-24T00:46:40;1.30;;;1.20;;
16634;SDS011;8431;52.458;9.998;2023-04-24T00:49:08;2.30;;;1.25;;
16634;SDS011;8431;52.458;9.998;2023-04-24T00:51:36;1.35;;;1.10;;
16634;SDS011;8431;52.458;9.998;2023-04-24T00:54:06;1.40;;;1.30;;
16634;SDS011;8431;52.458;9.998;2023-04-24T00:56:33;2.45;;;1.27;;
16634;SDS011;8431;52.458;9.998;2023-04-24T00:59:02;1.27;;;1.17;;
16634;SDS011;8431;52.458;9.998;2023-04-24T01:01:30;1.50;;;1.45;;
16634;SDS011;8431;52.458;9.998;2023-04-24T01:03:59;1.45;;;1.40;;
16634;SDS011;8431;52.458;9.998;2023-04-24T01:06:27;3.05;;;1.70;;
16634;SDS011;8431;52.458;9.998;2023-04-24T01:08:56;1.45;;;1.40;;
16634;SDS011;8431;52.458;9.998;2023-04-24T01:11:25;2.70;;;1.42;;
16634;SDS011;8431;52.458;9.998;2023-04-24T01:13:53;1.58;;;1.48;;
16634;SDS011;8431;52.458;9.998;2023-04-24T01:16:25;1.85;;;1.50;;
16634;SDS011;8431;52.458;9.998;2023-04-24T01:18:53;2.47;;;1.33;;
16634;SDS011;8431;52.458;9.998;2023-04-24T01:21:21;2.20;;;1.42;;
16634;SDS011;8431;52.458;9.998;2023-04-24T01:23:55;1.30;;;1.30;;
16634;SDS011;8431;52.458;9.998;2023-04-24T01:26:23;1.15;;;1.15;;
16634;SDS011;8431;52.458;9.998;2023-04-24T01:28:51;0.93;;;0.93;;
16634;SDS011;8431;52.458;9.998;2023-04-24T01:31:19;1.38;;;1.33;;
16634;SDS011;8431;52.458;9.998;2023-04-24T01:33:49;1.30;;;1.30;;
16634;SDS011;8431;52.458;9.998;2023-04-24T01:36:20;1.15;;;1.15;;
16634;SDS011;8431;52.458;9.998;2023-04-24T01:38:56;1.38;;;1.23;;
16634;SDS011;8431;52.458;9.998;2023-04-24T01:41:25;1.40;;;1.30;;
16634;SDS011;8431;52.458;9.998;2023-04-24T01:43:55;1.27;;;1.27;;
16634;SDS011;8431;52.458;9.998;2023-04-24T01:46:26;1.40;;;1.30;;
16634;SDS011;8431;52.458;9.998;2023-04-24T01:48:58;1.27;;;1.20;;
16634;SDS011;8431;52.458;9.998;2023-04-24T01:51:29;1.38;;;1.20;;
16634;SDS011;8431;52.458;9.998;2023-04-24T01:54:00;1.45;;;1.35;;
16634;SDS011;8431;52.458;9.998;2023-04-24T01:56:30;1.30;;;1.30;;
16634;SDS011;8431;52.458;9.998;2023-04-24T01:59:03;1.23;;;1.17;;
16634;SDS011;8431;52.458;9.998;2023-04-24T02:01:33;1.20;;;1.20;;
16634;SDS011;8431;52.458;9.998;2023-04-24T02:04:03;1.88;;;1.42;;
16634;SDS011;8431;52.458;9.998;2023-04-24T02:06:34;2.30;;;1.42;;
16634;SDS011;8431;52.458;9.998;2023-04-24T02:09:04;1.20;;;1.20;;
16634;SDS011;8431;52.458;9.998;2023-04-24T02:11:32;1.88;;;1.25;;
16634;SDS011;8431;52.458;9.998;2023-04-24T02:14:01;1.33;;;1.23;;
16634;SDS011;8431;52.458;9.998;2023-04-24T02:16:29;11.02;;;1.50;;
16634;SDS011;8431;52.458;9.998;2023-04-24T02:19:04;1.60;;;1.50;;
16634;SDS011;8431;52.458;9.998;2023-04-24T02:21:34;0.90;;;0.90;;
16634;SDS011;8431;52.458;9.998;2023-04-24T02:24:04;1.38;;;1.30;;
16634;SDS011;8431;52.458;9.998;2023-04-24T02:26:32;1.13;;;1.02;;
16634;SDS011;8431;52.458;9.998;2023-04-24T02:29:01;1.17;;;1.08;;
16634;SDS011;8431;52.458;9.998;2023-04-24T02:31:30;1.25;;;1.15;;
16634;SDS011;8431;52.458;9.998;2023-04-24T02:33:59;0.90;;;0.90;;
16634;SDS011;8431;52.458;9.998;2023-04-24T02:36:33;1.40;;;1.30;;
16634;SDS011;8431;52.458;9.998;2023-04-24T02:39:02;1.40;;;1.10;;
16634;SDS011;8431;52.458;9.998;2023-04-24T02:41:32;1.25;;;1.23;;
16634;SDS011;8431;52.458;9.998;2023-04-24T02:44:01;1.35;;;1.15;;
16634;SDS011;8431;52.458;9.998;2023-04-24T02:46:29;1.00;;;1.00;;
16634;SDS011;8431;52.458;9.998;2023-04-24T02:48:59;0.90;;;0.90;;
16634;SDS011;8431;52.458;9.998;2023-04-24T02:51:27;1.40;;;1.30;;
16634;SDS011;8431;52.458;9.998;2023-04-24T02:53:57;0.88;;;0.88;;
16634;SDS011;8431;52.458;9.998;2023-04-24T02:56:25;1.20;;;1.20;;
16634;SDS011;8431;52.458;9.998;2023-04-24T02:58:55;1.10;;;1.10;;
16634;SDS011;8431;52.458;9.998;2023-04-24T03:01:22;1.33;;;0.93;;
16634;SDS011;8431;52.458;9.998;2023-04-24T03:03:50;1.95;;;1.15;;
16634;SDS011;8431;52.458;9.998;2023-04-24T03:06:17;1.58;;;1.17;;
16634;SDS011;8431;52.458;9.998;2023-04-24T03:08:44;1.08;;;1.08;;
16634;SDS011;8431;52.458;9.998;2023-04-24T03:11:11;2.30;;;1.20;;
16634;SDS011;8431;52.458;9.998;2023-04-24T03:13:39;1.42;;;1.20;;
16634;SDS011;8431;52.458;9.998;2023-04-24T03:16:06;1.50;;;1.40;;
16634;SDS011;8431;52.458;9.998;2023-04-24T03:18:34;1.92;;;1.30;;
16634;SDS011;8431;52.458;9.998;2023-04-24T03:21:01;2.08;;;1.58;;
16634;SDS011;8431;52.458;9.998;2023-04-24T03:23:28;1.27;;;1.20;;
16634;SDS011;8431;52.458;9.998;2023-04-24T03:25:55;1.25;;;1.25;;
16634;SDS011;8431;52.458;9.998;2023-04-24T03:28:22;1.52;;;1.40;;
16634;SDS011;8431;52.458;9.998;2023-04-24T03:30:51;1.55;;;1.40;;
16634;SDS011;8431;52.458;9.998;2023-04-24T03:33:18;1.30;;;1.30;;
16634;SDS011;8431;52.458;9.998;2023-04-24T03:35:45;1.23;;;1.23;;
16634;SDS011;8431;52.458;9.998;2023-04-24T03:38:12;2.67;;;1.30;;
16634;SDS011;8431;52.458;9.998;2023-04-24T03:40:39;1.10;;;1.10;;
16634;SDS011;8431;52.458;9.998;2023-04-24T03:43:06;0.90;;;0.90;;
16634;SDS011;8431;52.458;9.998;2023-04-24T03:45:33;1.75;;;1.10;;
16634;SDS011;8431;52.458;9.998;2023-04-24T03:48:01;0.90;;;0.90;;
16634;SDS011;8431;52.458;9.998;2023-04-24T03:50:28;0.98;;;0.98;;
16634;SDS011;8431;52.458;9.998;2023-04-24T03:52:55;2.17;;;1.10;;
16634;SDS011;8431;52.458;9.998;2023-04-24T03:55:22;1.00;;;1.00;;
16634;SDS011;8431;52.458;9.998;2023-04-24T03:57:49;1.23;;;1.13;;
16634;SDS011;8431;52.458;9.998;2023-04-24T04:00:16;0.90;;;0.90;;
16634;SDS011;8431;52.458;9.998;2023-04-24T04:02:44;1.17;;;1.08;;
16634;SDS011;8431;52.458;9.998;2023-04-24T04:05:16;1.30;;;1.25;;
16634;SDS011;8431;52.458;9.998;2023-04-24T04:07:43;1.02;;;1.00;;
16634;SDS011;8431;52.458;9.998;2023-04-24T04:10:10;1.10;;;1.00;;
16634;SDS011;8431;52.458;9.998;2023-04-24T04:12:37;1.15;;;1.05;;
16634;SDS011;8431;52.458;9.998;2023-04-24T04:15:04;1.17;;;1.17;;
16634;SDS011;8431;52.458;9.998;2023-04-24T04:17:32;0.90;;;0.90;;
16634;SDS011;8431;52.458;9.998;2023-04-24T04:19:59;0.90;;;0.90;;
16634;SDS011;8431;52.458;9.998;2023-04-24T04:22:27;1.98;;;1.00;;
16634;SDS011;8431;52.458;9.998;2023-04-24T04:24:54;2.22;;;1.23;;
16634;SDS011;8431;52.458;9.998;2023-04-24T04:27:24;2.20;;;0.90;;
16634;SDS011;8431;52.458;9.998;2023-04-24T04:29:51;0.80;;;0.80;;
16634;SDS011;8431;52.458;9.998;2023-04-24T04:32:18;1.02;;;1.00;;
16634;SDS011;8431;52.458;9.998;2023-04-24T04:34:46;1.70;;;1.10;;
16634;SDS011;8431;52.458;9.998;2023-04-24T04:37:17;0.93;;;0.93;;
16634;SDS011;8431;52.458;9.998;2023-04-24T04:39:45;1.13;;;1.00;;
16634;SDS011;8431;52.458;9.998;2023-04-24T04:42:12;1.02;;;1.02;;
16634;SDS011;8431;52.458;9.998;2023-04-24T04:44:40;1.20;;;1.10;;
16634;SDS011;8431;52.458;9.998;2023-04-24T04:47:08;2.78;;;1.45;;
16634;SDS011;8431;52.458;9.998;2023-04-24T04:49:35;1.20;;;1.13;;
16634;SDS011;8431;52.458;9.998;2023-04-24T04:52:03;1.15;;;1.15;;
16634;SDS011;8431;52.458;9.998;2023-04-24T04:54:30;1.20;;;1.10;;
16634;SDS011;8431;52.458;9.998;2023-04-24T04:57:00;1.30;;;0.98;;
16634;SDS011;8431;52.458;9.998;2023-04-24T04:59:27;2.45;;;1.20;;
16634;SDS011;8431;52.458;9.998;2023-04-24T05:01:54;1.10;;;1.05;;
16634;SDS011;8431;52.458;9.998;2023-04-24T05:04:21;1.50;;;1.40;;
16634;SDS011;8431;52.458;9.998;2023-04-24T05:06:48;1.67;;;1.58;;
16634;SDS011;8431;52.458;9.998;2023-04-24T05:09:16;1.50;;;1.40;;
16634;SDS011;8431;52.458;9.998;2023-04-24T05:11:43;1.90;;;1.38;;
16634;SDS011;8431;52.458;9.998;2023-04-24T05:14:11;2.25;;;2.05;;
16634;SDS011;8431;52.458;9.998;2023-04-24T05:16:38;1.73;;;1.63;;
16634;SDS011;8431;52.458;9.998;2023-04-24T05:19:06;1.63;;;1.52;;
16634;SDS011;8431;52.458;9.998;2023-04-24T05:21:33;1.77;;;1.30;;
16634;SDS011;8431;52.458;9.998;2023-04-24T05:24:00;2.17;;;1.10;;
16634;SDS011;8431;52.458;9.998;2023-04-24T05:26:27;1.75;;;1.40;;
16634;SDS011;8431;52.458;9.998;2023-04-24T05:28:54;1.02;;;0.95;;
16634;SDS011;8431;52.458;9.998;2023-04-24T05:31:24;1.02;;;0.93;;
16634;SDS011;8431;52.458;9.998;2023-04-24T05:33:51;0.98;;;0.98;;
16634;SDS011;8431;52.458;9.998;2023-04-24T05:36:18;1.65;;;1.27;;
16634;SDS011;8431;52.458;9.998;2023-04-24T05:38:45;1.17;;;1.10;;
16634;SDS011;8431;52.458;9.998;2023-04-24T05:41:12;2.10;;;0.98;;
16634;SDS011;8431;52.458;9.998;2023-04-24T05:43:40;1.58;;;1.00;;
16634;SDS011;8431;52.458;9.998;2023-04-24T05:46:07;1.95;;;1.10;;
16634;SDS011;8431;52.458;9.998;2023-04-24T05:48:35;1.10;;;1.10;;
16634;SDS011;8431;52.458;9.998;2023-04-24T05:51:02;1.50;;;1.38;;
16634;SDS011;8431;52.458;9.998;2023-04-24T05:53:29;1.15;;;1.15;;
16634;SDS011;8431;52.458;9.998;2023-04-24T05:55:56;1.20;;;1.15;;
16634;SDS011;8431;52.458;9.998;2023-04-24T05:58:23;1.42;;;1.30;;
16634;SDS011;8431;52.458;9.998;2023-04-24T06:00:50;1.10;;;1.00;;
16634;SDS011;8431;52.458;9.998;2023-04-24T06:03:18;1.20;;;1.20;;
16634;SDS011;8431;52.458;9.998;2023-04-24T06:05:46;1.27;;;1.17;;
16634;SDS011;8431;52.458;9.998;2023-04-24T06:08:13;1.30;;;1.30;;
16634;SDS011;8431;52.458;9.998;2023-04-24T06:10:40;2.25;;;1.17;;
16634;SDS011;8431;52.458;9.998;2023-04-24T06:13:07;1.60;;;1.50;;
16634;SDS011;8431;52.458;9.998;2023-04-24T06:15:34;1.33;;;1.23;;
16634;SDS011;8431;52.458;9.998;2023-04-24T06:18:02;3.33;;;1.75;;
16634;SDS011;8431;52.458;9.998;2023-04-24T06:20:29;2.05;;;1.60;;
16634;SDS011;8431;52.458;9.998;2023-04-24T06:22:58;2.58;;;1.67;;
16634;SDS011;8431;52.458;9.998;2023-04-24T06:25:25;1.35;;;1.33;;
16634;SDS011;8431;52.458;9.998;2023-04-24T06:27:52;1.80;;;1.70;;
16634;SDS011;8431;52.458;9.998;2023-04-24T06:30:20;2.30;;;1.30;;
16634;SDS011;8431;52.458;9.998;2023-04-24T06:32:47;1.50;;;1.33;;
16634;SDS011;8431;52.458;9.998;2023-04-24T06:35:15;1.20;;;1.10;;
16634;SDS011;8431;52.458;9.998;2023-04-24T06:37:42;1.42;;;1.00;;
16634;SDS011;8431;52.458;9.998;2023-04-24T06:40:11;1.10;;;1.00;;
16634;SDS011;8431;52.458;9.998;2023-04-24T06:42:38;1.40;;;1.00;;
16634;SDS011;8431;52.458;9.998;2023-04-24T06:45:05;3.50;;;1.30;;
16634;SDS011;8431;52.458;9.998;2023-04-24T06:47:33;0.80;;;0.80;;
16634;SDS011;8431;52.458;9.998;2023-04-24T06:50:00;1.17;;;1.10;;
16634;SDS011;8431;52.458;9.998;2023-04-24T06:52:27;1.20;;;1.20;;
16634;SDS011;8431;52.458;9.998;2023-04-24T06:54:59;1.77;;;1.30;;
16634;SDS011;8431;52.458;9.998;2023-04-24T06:57:28;1.10;;;1.10;;
16634;SDS011;8431;52.458;9.998;2023-04-24T06:59:56;1.30;;;1.20;;
16634;SDS011;8431;52.458;9.998;2023-04-24T07:02:23;1.38;;;1.25;;
16634;SDS011;8431;52.458;9.998;2023-04-24T07:04:50;1.20;;;1.20;;
16634;SDS011;8431;52.458;9.998;2023-04-24T07:07:18;4.10;;;1.38;;
16634;SDS011;8431;52.458;9.998;2023-04-24T07:09:45;1.48;;;1.40;;
16634;SDS011;8431;52.458;9.998;2023-04-24T07:12:12;1.92;;;1.83;;
16634;SDS011;8431;52.458;9.998;2023-04-24T07:14:40;2.35;;;1.98;;
16634;SDS011;8431;52.458;9.998;2023-04-24T07:17:07;2.05;;;1.95;;
16634;SDS011;8431;52.458;9.998;2023-04-24T07:19:34;2.70;;;1.90;;
16634;SDS011;8431;52.458;9.998;2023-04-24T07:22:01;2.22;;;1.70;;
16634;SDS011;8431;52.458;9.998;2023-04-24T07:24:29;2.80;;;2.35;;
16634;SDS011;8431;52.458;9.998;2023-04-24T07:26:57;3.00;;;2.58;;
16634;SDS011;8431;52.458;9.998;2023-04-24T07:29:26;3.00;;;2.80;;
16634;SDS011;8431;52.458;9.998;2023-04-24T07:32:12;3.05;;;2.58;;
16634;SDS011;8431;52.458;9.998;2023-04-24T07:34:55;3.05;;;2.85;;
16634;SDS011;8431;52.458;9.998;2023-04-24T07:37:41;2.30;;;2.20;;
16634;SDS011;8431;52.458;9.998;2023-04-24T07:40:11;2.88;;;2.67;;
16634;SDS011;8431;52.458;9.998;2023-04-24T07:42:57;3.33;;;3.03;;
16634;SDS011;8431;52.458;9.998;2023-04-24T07:45:24;2.90;;;2.80;;
16634;SDS011;8431;52.458;9.998;2023-04-24T07:47:54;5.00;;;2.80;;
16634;SDS011;8431;52.458;9.998;2023-04-24T07:50:21;3.13;;;2.92;;
16634;SDS011;8431;52.458;9.998;2023-04-24T07:53:03;3.38;;;3.03;;
16634;SDS011;8431;52.458;9.998;2023-04-24T07:55:30;3.40;;;3.20;;
16634;SDS011;8431;52.458;9.998;2023-04-24T07:58:16;3.38;;;3.17;;
16634;SDS011;8431;52.458;9.998;2023-04-24T08:00:43;3.15;;;2.95;;
16634;SDS011;8431;52.458;9.998;2023-04-24T08:03:30;3.80;;;3.42;;
16634;SDS011;8431;52.458;9.998;2023-04-24T08:05:58;3.78;;;3.47;;
16634;SDS011;8431;52.458;9.998;2023-04-24T08:08:43;4.53;;;3.80;;
16634;SDS011;8431;52.458;9.998;2023-04-24T08:11:10;3.78;;;3.58;;
16634;SDS011;8431;52.458;9.998;2023-04-24T08:13:56;3.88;;;3.58;;
16634;SDS011;8431;52.458;9.998;2023-04-24T08:16:23;3.90;;;3.60;;
16634;SDS011;8431;52.458;9.998;2023-04-24T08:19:10;4.07;;;3.78;;
16634;SDS011;8431;52.458;9.998;2023-04-24T08:21:38;4.57;;;3.95;;
16634;SDS011;8431;52.458;9.998;2023-04-24T08:24:23;4.63;;;4.32;;
16634;SDS011;8431;52.458;9.998;2023-04-24T08:26:51;4.75;;;4.43;;
16634;SDS011;8431;52.458;9.998;2023-04-24T08:29:37;5.80;;;5.30;;
16634;SDS011;8431;52.458;9.998;2023-04-24T08:32:05;5.43;;;4.93;;
16634;SDS011;8431;52.458;9.998;2023-04-24T08:34:52;5.07;;;4.68;;
16634;SDS011;8431;52.458;9.998;2023-04-24T08:37:21;13.85;;;5.20;;
16634;SDS011;8431;52.458;9.998;2023-04-24T08:39:48;5.13;;;4.65;;
16634;SDS011;8431;52.458;9.998;2023-04-24T08:42:19;5.63;;;5.18;;
16634;SDS011;8431;52.458;9.998;2023-04-24T08:45:05;5.65;;;5.18;;
16634;SDS011;8431;52.458;9.998;2023-04-24T08:47:33;5.30;;;4.80;;
16634;SDS011;8431;52.458;9.998;2023-04-24T08:50:22;4.93;;;4.43;;
16634;SDS011;8431;52.458;9.998;2023-04-24T08:52:49;4.82;;;4.38;;
16634;SDS011;8431;52.458;9.998;2023-04-24T08:55:37;4.35;;;3.95;;
16634;SDS011;8431;52.458;9.998;2023-04-24T08:58:04;5.03;;;4.63;;
16634;SDS011;8431;52.458;9.998;2023-04-24T09:00:50;4.97;;;4.57;;
16634;SDS011;8431;52.458;9.998;2023-04-24T09:03:17;5.53;;;5.03;;
16634;SDS011;8431;52.458;9.998;2023-04-24T09:06:07;3.90;;;3.60;;
16634;SDS011;8431;52.458;9.998;2023-04-24T09:08:35;4.43;;;3.70;;
16634;SDS011;8431;52.458;9.998;2023-04-24T09:11:21;4.03;;;3.72;;
16634;SDS011;8431;52.458;9.998;2023-04-24T09:13:51;4.22;;;3.92;;
16634;SDS011;8431;52.458;9.998;2023-04-24T09:16:38;4.00;;;3.80;;
16634;SDS011;8431;52.458;9.998;2023-04-24T09:19:05;4.15;;;3.80;;
16634;SDS011;8431;52.458;9.998;2023-04-24T09:21:52;4.35;;;4.05;;
16634;SDS011;8431;52.458;9.998;2023-04-24T09:24:20;4.22;;;3.92;;
16634;SDS011;8431;52.458;9.998;2023-04-24T09:27:07;3.88;;;3.58;;
16634;SDS011;8431;52.458;9.998;2023-04-24T09:29:53;4.55;;;3.72;;
16634;SDS011;8431;52.458;9.998;2023-04-24T09:32:39;3.60;;;3.30;;
16634;SDS011;8431;52.458;9.998;2023-04-24T09:35:08;3.33;;;3.13;;
16634;SDS011;8431;52.458;9.998;2023-04-24T09:37:38;2.85;;;2.65;;
16634;SDS011;8431;52.458;9.998;2023-04-24T09:40:08;2.25;;;2.10;;
16634;SDS011;8431;52.458;9.998;2023-04-24T09:42:56;2.60;;;2.00;;
16634;SDS011;8431;52.458;9.998;2023-04-24T09:45:27;2.15;;;2.05;;
16634;SDS011;8431;52.458;9.998;2023-04-24T09:48:14;1.70;;;1.70;;
16634;SDS011;8431;52.458;9.998;2023-04-24T09:50:45;2.35;;;2.13;;
16634;SDS011;8431;52.458;9.998;2023-04-24T09:53:32;2.40;;;2.20;;
16634;SDS011;8431;52.458;9.998;2023-04-24T09:56:02;2.22;;;2.13;;
16634;SDS011;8431;52.458;9.998;2023-04-24T09:58:51;2.20;;;2.10;;
16634;SDS011;8431;52.458;9.998;2023-04-24T10:01:28;2.00;;;1.92;;
16634;SDS011;8431;52.458;9.998;2023-04-24T10:04:15;3.08;;;2.65;;
16634;SDS011;8431;52.458;9.998;2023-04-24T10:06:44;2.38;;;2.17;;
16634;SDS011;8431;52.458;9.998;2023-04-24T10:09:31;3.17;;;2.53;;
16634;SDS011;8431;52.458;9.998;2023-04-24T10:11:59;2.67;;;2.47;;
16634;SDS011;8431;52.458;9.998;2023-04-24T10:14:45;2.70;;;2.50;;
16634;SDS011;8431;52.458;9.998;2023-04-24T10:17:13;3.40;;;2.78;;
16634;SDS011;8431;52.458;9.998;2023-04-24T10:19:41;3.22;;;2.80;;
16634;SDS011;8431;52.458;9.998;2023-04-24T10:22:09;3.05;;;2.85;;
16634;SDS011;8431;52.458;9.998;2023-04-24T10:24:39;2.75;;;2.55;;
16634;SDS011;8431;52.458;9.998;2023-04-24T10:27:26;2.55;;;2.45;;
16634;SDS011;8431;52.458;9.998;2023-04-24T10:29:53;2.30;;;2.20;;
16634;SDS011;8431;52.458;9.998;2023-04-24T10:32:40;2.53;;;2.33;;
16634;SDS011;8431;52.458;9.998;2023-04-24T10:35:07;2.92;;;2.67;;
16634;SDS011;8431;52.458;9.998;2023-04-24T10:37:36;3.10;;;2.90;;
16634;SDS011;8431;52.458;9.998;2023-04-24T10:40:07;3.25;;;2.65;;
16634;SDS011;8431;52.458;9.998;2023-04-24T10:42:55;2.45;;;2.35;;
16634;SDS011;8431;52.458;9.998;2023-04-24T10:45:23;2.50;;;2.40;;
16634;SDS011;8431;52.458;9.998;2023-04-24T10:48:09;2.30;;;2.20;;
16634;SDS011;8431;52.458;9.998;2023-04-24T10:50:42;3.00;;;2.80;;
16634;SDS011;8431;52.458;9.998;2023-04-24T10:53:30;2.60;;;2.22;;
16634;SDS011;8431;52.458;9.998;2023-04-24T10:56:04;2.70;;;2.50;;
16634;SDS011;8431;52.458;9.998;2023-04-24T10:58:36;2.85;;;2.65;;
16634;SDS011;8431;52.458;9.998;2023-04-24T11:01:05;2.67;;;2.47;;
16634;SDS011;8431;52.458;9.998;2023-04-24T11:03:34;2.25;;;2.15;;
16634;SDS011;8431;52.458;9.998;2023-04-24T11:06:08;2.72;;;2.55;;
16634;SDS011;8431;52.458;9.998;2023-04-24T11:09:24;2.60;;;2.50;;
16634;SDS011;8431;52.458;9.998;2023-04-24T11:13:01;2.40;;;2.30;;
16634;SDS011;8431;52.458;9.998;2023-04-24T11:15:53;2.53;;;2.00;;
16634;SDS011;8431;52.458;9.998;2023-04-24T11:26:47;13.20;;;7.60;;
16634;SDS011;8431;52.458;9.998;2023-04-24T11:33:05;2.40;;;2.10;;
16634;SDS011;8431;52.458;9.998;2023-04-24T11:40:04;1.95;;;1.80;;
16634;SDS011;8431;52.458;9.998;2023-04-24T11:43:29;2.30;;;2.20;;
16634;SDS011;8431;52.458;9.998;2023-04-24T11:46:04;2.38;;;2.17;;
16634;SDS011;8431;52.458;9.998;2023-04-24T11:48:34;2.40;;;2.30;;
16634;SDS011;8431;52.458;9.998;2023-04-24T11:52:45;2.40;;;2.30;;
16634;SDS011;8431;52.458;9.998;2023-04-24T12:08:53;2.05;;;1.92;;
16634;SDS011;8431;52.458;9.998;2023-04-24T12:11:30;1.75;;;1.65;;
16634;SDS011;8431;52.458;9.998;2023-04-24T12:18:25;1.20;;;1.20;;
16634;SDS011;8431;52.458;9.998;2023-04-24T12:20:52;1.73;;;1.65;;
16634;SDS011;8431;52.458;9.998;2023-04-24T12:23:34;0.82;;;0.82;;
16634;SDS011;8431;52.458;9.998;2023-04-24T12:26:03;0.90;;;0.90;;
16634;SDS011;8431;52.458;9.998;2023-04-24T12:28:34;1.80;;;1.02;;
16634;SDS011;8431;52.458;9.998;2023-04-24T12:34:05;1.23;;;0.98;;
16634;SDS011;8431;52.458;9.998;2023-04-24T12:37:23;1.17;;;1.17;;
16634;SDS011;8431;52.458;9.998;2023-04-24T12:40:05;1.10;;;1.10;;
16634;SDS011;8431;52.458;9.998;2023-04-24T12:42:33;0.90;;;0.90;;
16634;SDS011;8431;52.458;9.998;2023-04-24T12:45:02;0.80;;;0.80;;
16634;SDS011;8431;52.458;9.998;2023-04-24T12:47:35;0.90;;;0.90;;
16634;SDS011;8431;52.458;9.998;2023-04-24T12:50:02;1.52;;;1.42;;
16634;SDS011;8431;52.458;9.998;2023-04-24T12:52:29;0.95;;;0.45;;
16634;SDS011;8431;52.458;9.998;2023-04-24T12:54:57;0.70;;;0.70;;
16634;SDS011;8431;52.458;9.998;2023-04-24T12:57:27;5.75;;;3.55;;
16634;SDS011;8431;52.458;9.998;2023-04-24T12:59:56;1.65;;;0.70;;
16634;SDS011;8431;52.458;9.998;2023-04-24T13:02:24;1.85;;;0.73;;
16634;SDS011;8431;52.458;9.998;2023-04-24T13:04:53;0.73;;;0.73;;
16634;SDS011;8431;52.458;9.998;2023-04-24T13:07:20;0.80;;;0.80;;
16634;SDS011;8431;52.458;9.998;2023-04-24T13:09:47;1.35;;;0.85;;
16634;SDS011;8431;52.458;9.998;2023-04-24T13:12:15;1.42;;;1.08;;
16634;SDS011;8431;52.458;9.998;2023-04-24T13:14:44;2.80;;;2.20;;
16634;SDS011;8431;52.458;9.998;2023-04-24T13:17:11;1.30;;;1.30;;
16634;SDS011;8431;52.458;9.998;2023-04-24T13:19:39;1.05;;;1.05;;
16634;SDS011;8431;52.458;9.998;2023-04-24T13:22:08;1.85;;;1.10;;
16634;SDS011;8431;52.458;9.998;2023-04-24T13:50:57;1.55;;;1.45;;
16634;SDS011;8431;52.458;9.998;2023-04-24T13:53:27;1.33;;;1.23;;
16634;SDS011;8431;52.458;9.998;2023-04-24T13:55:54;1.33;;;1.23;;
16634;SDS011;8431;52.458;9.998;2023-04-24T13:58:21;1.17;;;1.17;;
16634;SDS011;8431;52.458;9.998;2023-04-24T14:00:51;1.40;;;1.30;;
16634;SDS011;8431;52.458;9.998;2023-04-24T14:03:20;3.95;;;2.25;;
16634;SDS011;8431;52.458;9.998;2023-04-24T14:05:47;1.23;;;1.23;;
16634;SDS011;8431;52.458;9.998;2023-04-24T14:08:14;0.90;;;0.90;;
16634;SDS011;8431;52.458;9.998;2023-04-24T14:10:50;1.08;;;0.98;;
16634;SDS011;8431;52.458;9.998;2023-04-24T14:13:17;0.73;;;0.73;;
16634;SDS011;8431;52.458;9.998;2023-04-24T14:15:46;0.73;;;0.73;;
16634;SDS011;8431;52.458;9.998;2023-04-24T14:18:13;0.98;;;0.98;;
16634;SDS011;8431;52.458;9.998;2023-04-24T14:20:40;1.00;;;0.95;;
16634;SDS011;8431;52.458;9.998;2023-04-24T14:23:08;0.73;;;0.73;;
16634;SDS011;8431;52.458;9.998;2023-04-24T14:25:35;1.00;;;1.00;;
16634;SDS011;8431;52.458;9.998;2023-04-24T14:28:03;0.70;;;0.70;;
16634;SDS011;8431;52.458;9.998;2023-04-24T14:30:35;1.10;;;1.00;;
16634;SDS011;8431;52.458;9.998;2023-04-24T14:33:02;0.70;;;0.70;;
16634;SDS011;8431;52.458;9.998;2023-04-24T14:35:29;1.50;;;0.88;;
16634;SDS011;8431;52.458;9.998;2023-04-24T14:37:59;1.00;;;1.00;;
16634;SDS011;8431;52.458;9.998;2023-04-24T14:40:26;1.10;;;1.10;;
16634;SDS011;8431;52.458;9.998;2023-04-24T14:42:53;1.25;;;1.20;;
16634;SDS011;8431;52.458;9.998;2023-04-24T14:45:21;1.55;;;1.48;;
16634;SDS011;8431;52.458;9.998;2023-04-24T14:47:48;1.27;;;1.20;;
16634;SDS011;8431;52.458;9.998;2023-04-24T14:50:15;1.58;;;1.40;;
16634;SDS011;8431;52.458;9.998;2023-04-24T14:52:43;1.35;;;1.25;;
16634;SDS011;8431;52.458;9.998;2023-04-24T14:55:10;2.70;;;1.67;;
16634;SDS011;8431;52.458;9.998;2023-04-24T14:57:37;1.40;;;1.33;;
16634;SDS011;8431;52.458;9.998;2023-04-24T15:00:04;1.67;;;1.65;;
16634;SDS011;8431;52.458;9.998;2023-04-24T15:02:35;1.85;;;1.75;;
16634;SDS011;8431;52.458;9.998;2023-04-24T15:05:07;1.80;;;1.70;;
16634;SDS011;8431;52.458;9.998;2023-04-24T15:07:34;2.30;;;2.10;;
16634;SDS011;8431;52.458;9.998;2023-04-24T15:10:01;2.97;;;2.28;;
16634;SDS011;8431;52.458;9.998;2023-04-24T15:12:28;2.85;;;2.65;;
16634;SDS011;8431;52.458;9.998;2023-04-24T15:14:57;3.30;;;2.45;;
16634;SDS011;8431;52.458;9.998;2023-04-24T15:17:24;3.05;;;2.60;;
16634;SDS011;8431;52.458;9.998;2023-04-24T15:19:53;3.40;;;3.05;;
16634;SDS011;8431;52.458;9.998;2023-04-24T15:22:20;2.95;;;2.70;;
16634;SDS011;8431;52.458;9.998;2023-04-24T15:24:47;3.03;;;2.83;;
16634;SDS011;8431;52.458;9.998;2023-04-24T15:32:43;6.10;;;3.00;;
16634;SDS011;8431;52.458;9.998;2023-04-24T15:35:12;5.63;;;3.88;;
16634;SDS011;8431;52.458;9.998;2023-04-24T15:37:39;5.82;;;3.75;;
16634;SDS011;8431;52.458;9.998;2023-04-24T15:40:06;5.10;;;3.00;;
16634;SDS011;8431;52.458;9.998;2023-04-24T15:42:37;3.45;;;2.60;;
16634;SDS011;8431;52.458;9.998;2023-04-24T15:45:48;3.90;;;3.03;;
16634;SDS011;8431;52.458;9.998;2023-04-24T15:48:16;5.03;;;3.03;;
16634;SDS011;8431;52.458;9.998;2023-04-24T15:50:44;3.25;;;2.78;;
16634;SDS011;8431;52.458;9.998;2023-04-24T15:53:11;4.82;;;2.83;;
16634;SDS011;8431;52.458;9.998;2023-04-24T15:55:38;5.10;;;3.63;;
16634;SDS011;8431;52.458;9.998;2023-04-24T15:58:05;5.97;;;3.40;;
16634;SDS011;8431;52.458;9.998;2023-04-24T16:00:32;4.45;;;3.00;;
16634;SDS011;8431;52.458;9.998;2023-04-24T16:02:59;3.53;;;3.15;;
16634;SDS011;8431;52.458;9.998;2023-04-24T16:05:26;4.85;;;3.45;;
16634;SDS011;8431;52.458;9.998;2023-04-24T16:07:55;4.72;;;3.30;;
16634;SDS011;8431;52.458;9.998;2023-04-24T16:10:22;6.70;;;3.75;;
16634;SDS011;8431;52.458;9.998;2023-04-24T16:12:49;6.15;;;3.70;;
16634;SDS011;8431;52.458;9.998;2023-04-24T16:15:17;3.53;;;3.22;;
16634;SDS011;8431;52.458;9.998;2023-04-24T16:17:44;6.97;;;4.35;;
16634;SDS011;8431;52.458;9.998;2023-04-24T16:20:12;7.45;;;3.97;;
16634;SDS011;8431;52.458;9.998;2023-04-24T16:22:39;4.65;;;4.15;;
16634;SDS011;8431;52.458;9.998;2023-04-24T16:25:08;6.05;;;4.28;;
16634;SDS011;8431;52.458;9.998;2023-04-24T16:27:35;5.80;;;4.18;;
16634;SDS011;8431;52.458;9.998;2023-04-24T16:30:03;6.53;;;4.43;;
16634;SDS011;8431;52.458;9.998;2023-04-24T16:32:31;6.68;;;4.53;;
16634;SDS011;8431;52.458;9.998;2023-04-24T16:34:58;5.65;;;4.22;;